createdAt,value
2016-04-04T00:00:55.846Z,16.75
2016-04-04T00:01:55.864Z,16.74
2016-04-04T00:02:55.915Z,16.68
2016-04-04T00:03:55.917Z,16.68
2016-04-04T00:04:55.951Z,16.68
2016-04-04T00:05:55.969Z,16.69
2016-04-04T00:06:55.987Z,16.66
2016-04-04T00:07:56.021Z,16.64
2016-04-04T00:08:56.055Z,16.64
2016-04-04T00:09:56.073Z,16.53
2016-04-04T00:10:56.092Z,16.54
2016-04-04T00:11:56.111Z,16.57
2016-04-04T00:12:56.144Z,16.5
2016-04-04T00:13:56.178Z,16.5
2016-04-04T00:14:56.197Z,16.53
2016-04-04T00:15:56.215Z,16.5
2016-04-04T00:16:56.249Z,16.58
2016-04-04T00:17:56.251Z,16.49
2016-04-04T00:18:56.285Z,16.51
2016-04-04T00:19:56.335Z,16.5
2016-04-04T00:20:56.338Z,16.46
2016-04-04T00:21:56.356Z,16.42
2016-04-04T00:22:56.390Z,16.47
2016-04-04T00:23:56.424Z,16.39
2016-04-04T00:24:56.441Z,16.36
2016-04-04T00:25:56.460Z,16.36
2016-04-04T00:26:56.479Z,16.38
2016-04-04T00:27:56.497Z,16.36
2016-04-04T00:28:56.546Z,16.38
2016-04-04T00:29:56.565Z,16.32
2016-04-04T00:30:56.582Z,16.28
2016-04-04T00:31:56.601Z,16.29
2016-04-04T00:32:56.635Z,16.28
2016-04-04T00:33:56.654Z,16.23
2016-04-04T00:34:56.672Z,16.26
2016-04-04T00:35:56.690Z,16.28
2016-04-04T00:36:56.723Z,16.21
2016-04-04T00:37:56.742Z,16.24
2016-04-04T00:38:56.777Z,16.16
2016-04-04T00:39:56.794Z,16.1
2016-04-04T00:40:56.829Z,16.15
2016-04-04T00:41:56.862Z,16.12
2016-04-04T00:42:56.864Z,16.1
2016-04-04T00:43:56.883Z,16.05
2016-04-04T00:44:56.918Z,16.09
2016-04-04T00:45:56.967Z,16.1
2016-04-04T00:46:56.986Z,16.05
2016-04-04T00:47:56.988Z,16.08
2016-04-04T00:48:57.006Z,16.02
2016-04-04T00:49:57.040Z,16.04
2016-04-04T00:50:57.074Z,15.9
2016-04-04T00:51:57.077Z,15.95
2016-04-04T00:52:57.127Z,16.02
2016-04-04T00:53:57.144Z,16
2016-04-04T00:54:57.147Z,15.97
2016-04-04T00:55:57.182Z,16
2016-04-04T00:56:57.200Z,15.88
2016-04-04T00:57:57.234Z,16
2016-04-04T00:59:03.549Z,15.92
2016-04-04T00:59:57.285Z,16
2016-04-04T01:00:57.304Z,15.91
2016-04-04T01:01:57.323Z,15.94
2016-04-04T01:02:57.341Z,15.94
2016-04-04T01:03:57.391Z,15.97
2016-04-04T01:04:57.393Z,15.84
2016-04-04T01:05:57.412Z,15.84
2016-04-04T01:06:57.540Z,15.79
2016-04-04T01:07:57.462Z,15.83
2016-04-04T01:08:57.480Z,15.84
2016-04-04T01:09:57.514Z,15.77
2016-04-04T01:10:57.532Z,15.8
2016-04-04T01:11:57.566Z,15.77
2016-04-04T01:12:57.584Z,15.75
2016-04-04T01:13:57.603Z,15.76
2016-04-04T01:14:57.636Z,15.64
2016-04-04T01:15:57.655Z,15.64
2016-04-04T01:16:57.673Z,15.65
2016-04-04T01:17:57.706Z,15.59
2016-04-04T01:18:57.725Z,15.62
2016-04-04T01:19:57.744Z,15.64
2016-04-04T01:20:57.777Z,15.65
2016-04-04T01:21:57.796Z,15.61
2016-04-04T01:22:57.814Z,15.65
2016-04-04T01:23:57.848Z,15.64
2016-04-04T01:24:57.867Z,15.67
2016-04-04T01:25:57.885Z,15.62
2016-04-04T01:26:57.919Z,15.58
2016-04-04T01:27:57.937Z,15.55
2016-04-04T01:28:57.971Z,15.49
2016-04-04T01:29:57.988Z,15.58
2016-04-04T01:30:58.007Z,15.58
2016-04-04T01:31:58.041Z,15.47
2016-04-04T01:32:58.044Z,15.55
2016-04-04T01:33:58.079Z,15.46
2016-04-04T01:34:58.112Z,15.44
2016-04-04T01:35:58.130Z,15.49
2016-04-04T01:36:58.165Z,15.49
2016-04-04T01:37:58.183Z,15.46
2016-04-04T01:38:58.201Z,15.46
2016-04-04T01:39:58.220Z,15.42
2016-04-04T01:40:58.238Z,15.39
2016-04-04T01:41:58.271Z,15.33
2016-04-04T01:42:58.290Z,15.36
2016-04-04T01:43:58.308Z,15.28
2016-04-04T01:44:58.342Z,15.36
2016-04-04T01:45:58.361Z,15.33
2016-04-04T01:46:58.378Z,15.29
2016-04-04T01:47:58.412Z,15.28
2016-04-04T01:48:58.430Z,15.31
2016-04-04T01:49:58.464Z,15.29
2016-04-04T01:50:58.483Z,15.33
2016-04-04T01:51:58.501Z,15.24
2016-04-04T01:52:58.519Z,15.25
2016-04-04T01:53:58.553Z,15.19
2016-04-04T01:54:58.571Z,15.17
2016-04-04T01:55:58.590Z,15.18
2016-04-04T01:56:58.624Z,15.22
2016-04-04T01:57:58.643Z,15.21
2016-04-04T01:58:58.660Z,15.19
2016-04-04T01:59:58.694Z,15.21
2016-04-04T02:00:58.718Z,15.11
2016-04-04T02:01:58.737Z,15.11
2016-04-04T02:02:58.755Z,15.1
2016-04-04T02:03:58.788Z,15.1
2016-04-04T02:04:58.807Z,15.15
2016-04-04T02:05:58.825Z,15.15
2016-04-04T02:06:58.859Z,15.1
2016-04-04T02:07:58.878Z,15.18
2016-04-04T02:08:58.895Z,15.04
2016-04-04T02:09:58.929Z,15.15
2016-04-04T02:10:58.948Z,15.03
2016-04-04T02:11:58.967Z,15.03
2016-04-04T02:12:59.000Z,14.99
2016-04-04T02:13:59.019Z,15.06
2016-04-04T02:14:59.053Z,15.06
2016-04-04T02:15:59.087Z,15.03
2016-04-04T02:16:59.105Z,15
2016-04-04T02:17:59.108Z,14.96
2016-04-04T02:18:59.125Z,14.96
2016-04-04T02:19:59.160Z,14.85
2016-04-04T02:20:59.194Z,14.94
2016-04-04T02:21:59.212Z,15.02
2016-04-04T02:22:59.231Z,15
2016-04-04T02:23:59.249Z,14.97
2016-04-04T02:24:59.283Z,14.94
2016-04-04T02:25:59.285Z,14.94
2016-04-04T02:26:59.319Z,14.94
2016-04-04T02:27:59.338Z,14.84
2016-04-04T02:28:59.372Z,14.85
2016-04-04T02:29:59.390Z,14.79
2016-04-04T02:30:59.408Z,14.81
2016-04-04T02:31:59.427Z,14.72
2016-04-04T02:32:59.445Z,14.85
2016-04-04T02:33:59.479Z,14.79
2016-04-04T02:34:59.497Z,14.72
2016-04-04T02:35:59.515Z,14.73
2016-04-04T02:36:59.549Z,14.78
2016-04-04T02:37:59.568Z,14.73
2016-04-04T02:38:59.586Z,14.78
2016-04-04T02:39:59.604Z,14.78
2016-04-04T02:40:59.638Z,14.68
2016-04-04T02:41:59.656Z,14.77
2016-04-04T02:42:59.675Z,14.81
2016-04-04T02:43:59.709Z,14.77
2016-04-04T02:44:59.728Z,14.7
2016-04-04T02:45:59.761Z,14.69
2016-04-04T02:46:59.764Z,14.66
2016-04-04T02:47:59.798Z,14.63
2016-04-04T02:48:59.831Z,14.68
2016-04-04T02:49:59.834Z,14.63
2016-04-04T02:50:59.868Z,14.68
2016-04-04T02:51:59.886Z,14.66
2016-04-04T02:52:59.905Z,14.68
2016-04-04T02:53:59.938Z,14.55
2016-04-04T02:54:59.800Z,14.59
2016-04-04T02:55:59.991Z,14.53
2016-04-04T02:57:00.009Z,14.6
2016-04-04T02:58:00.044Z,14.53
2016-04-04T02:59:00.061Z,14.5
2016-04-04T03:00:00.080Z,14.55
2016-04-04T03:01:00.098Z,14.51
2016-04-04T03:02:00.117Z,14.47
2016-04-04T03:03:00.135Z,14.54
2016-04-04T03:04:00.168Z,14.51
2016-04-04T03:05:00.188Z,14.5
2016-04-04T03:06:00.205Z,14.51
2016-04-04T03:07:00.224Z,14.51
2016-04-04T03:08:00.266Z,14.44
2016-04-04T03:09:00.269Z,14.41
2016-04-04T03:10:00.303Z,14.41
2016-04-04T03:11:00.321Z,14.44
2016-04-04T03:12:00.340Z,14.47
2016-04-04T03:13:00.374Z,14.47
2016-04-04T03:14:00.407Z,14.41
2016-04-04T03:15:00.426Z,14.44
2016-04-04T03:16:00.444Z,14.45
2016-04-04T03:17:00.462Z,14.47
2016-04-04T03:18:00.481Z,14.5
2016-04-04T03:19:00.515Z,14.47
2016-04-04T03:20:00.534Z,14.29
2016-04-04T03:21:00.551Z,14.36
2016-04-04T03:22:00.570Z,14.3
2016-04-04T03:23:00.588Z,14.37
2016-04-04T03:24:00.622Z,14.36
2016-04-04T03:25:00.640Z,14.37
2016-04-04T03:26:00.675Z,14.32
2016-04-04T03:27:00.677Z,14.35
2016-04-04T03:28:00.711Z,14.28
2016-04-04T03:29:00.729Z,14.22
2016-04-04T03:30:00.747Z,14.25
2016-04-04T03:31:00.781Z,14.25
2016-04-04T03:32:00.816Z,14.26
2016-04-04T03:33:00.818Z,14.26
2016-04-04T03:34:00.836Z,14.29
2016-04-04T03:35:00.870Z,14.23
2016-04-04T03:36:00.905Z,14.33
2016-04-04T03:37:00.907Z,14.23
2016-04-04T03:38:00.941Z,14.25
2016-04-04T03:39:00.975Z,14.23
2016-04-04T03:40:00.978Z,14.14
2016-04-04T03:41:00.996Z,14.23
2016-04-04T03:42:01.029Z,14.26
2016-04-04T03:43:01.033Z,14.18
2016-04-04T03:44:01.066Z,14.2
2016-04-04T03:45:01.068Z,14.2
2016-04-04T03:46:01.104Z,14.11
2016-04-04T03:47:01.138Z,14.2
2016-04-04T03:48:01.155Z,14.12
2016-04-04T03:49:01.173Z,14.1
2016-04-04T03:50:01.193Z,14.17
2016-04-04T03:51:01.210Z,14.12
2016-04-04T03:52:01.244Z,14.05
2016-04-04T03:53:01.262Z,14.23
2016-04-04T03:54:01.296Z,14.12
2016-04-04T03:55:01.315Z,14.12
2016-04-04T03:56:01.333Z,14.2
2016-04-04T03:57:01.351Z,14.14
2016-04-04T03:58:01.370Z,14.14
2016-04-04T03:59:01.404Z,14.14
2016-04-04T04:00:01.422Z,14.07
2016-04-04T04:01:01.440Z,14.07
2016-04-04T04:02:01.459Z,14.11
2016-04-04T04:03:01.477Z,14.11
2016-04-04T04:04:01.511Z,14.12
2016-04-04T04:05:01.530Z,14.04
2016-04-04T04:06:01.564Z,14.05
2016-04-04T04:07:01.567Z,14.1
2016-04-04T04:08:01.601Z,14.04
2016-04-04T04:09:01.634Z,14.08
2016-04-04T04:10:01.653Z,14
2016-04-04T04:11:01.687Z,14.04
2016-04-04T04:12:01.674Z,14.04
2016-04-04T04:13:01.739Z,13.99
2016-04-04T04:14:01.726Z,14.11
2016-04-04T04:15:01.745Z,14.05
2016-04-04T04:16:01.778Z,13.96
2016-04-04T04:17:01.828Z,13.99
2016-04-04T04:18:01.831Z,13.96
2016-04-04T04:19:01.849Z,13.96
2016-04-04T04:20:01.867Z,13.93
2016-04-04T04:21:01.885Z,13.89
2016-04-04T04:22:01.905Z,13.92
2016-04-04T04:23:01.938Z,13.95
2016-04-04T04:24:01.956Z,13.99
2016-04-04T04:25:02.006Z,13.93
2016-04-04T04:26:01.993Z,13.99
2016-04-04T04:27:02.027Z,13.97
2016-04-04T04:28:02.045Z,13.92
2016-04-04T04:29:02.064Z,13.97
2016-04-04T04:30:02.098Z,13.93
2016-04-04T04:31:02.100Z,13.97
2016-04-04T04:32:02.149Z,13.96
2016-04-04T04:33:02.151Z,13.95
2016-04-04T04:34:02.155Z,13.87
2016-04-04T04:35:02.189Z,13.9
2016-04-04T04:36:02.223Z,13.9
2016-04-04T04:37:02.257Z,13.93
2016-04-04T04:38:02.259Z,13.9
2016-04-04T04:39:02.309Z,13.87
2016-04-04T04:40:02.311Z,13.89
2016-04-04T04:41:02.331Z,13.9
2016-04-04T04:42:02.348Z,13.92
2016-04-04T04:43:02.367Z,13.89
2016-04-04T04:44:02.400Z,13.81
2016-04-04T04:45:02.434Z,13.89
2016-04-04T04:46:02.437Z,13.85
2016-04-04T04:47:02.455Z,13.81
2016-04-04T04:48:02.474Z,13.9
2016-04-04T04:49:02.508Z,13.9
2016-04-04T04:50:02.527Z,13.81
2016-04-04T04:51:02.560Z,13.81
2016-04-04T04:52:02.641Z,13.86
2016-04-04T04:53:02.581Z,13.78
2016-04-04T04:54:02.615Z,13.79
2016-04-04T04:55:02.665Z,13.79
2016-04-04T04:56:02.713Z,13.78
2016-04-04T04:57:02.670Z,13.83
2016-04-04T04:58:02.688Z,13.77
2016-04-04T04:59:02.707Z,13.78
2016-04-04T05:00:02.756Z,13.83
2016-04-04T05:01:02.774Z,13.79
2016-04-04T05:02:02.793Z,13.75
2016-04-04T05:03:02.811Z,13.83
2016-04-04T05:04:02.830Z,13.79
2016-04-04T05:05:02.848Z,13.83
2016-04-04T05:06:02.898Z,13.79
2016-04-04T05:07:02.900Z,13.78
2016-04-04T05:08:02.934Z,13.77
2016-04-04T05:09:02.937Z,13.72
2016-04-04T05:10:02.955Z,13.83
2016-04-04T05:11:02.973Z,13.79
2016-04-04T05:12:03.006Z,13.81
2016-04-04T05:13:03.026Z,13.77
2016-04-04T05:14:03.059Z,13.78
2016-04-04T05:15:03.061Z,13.78
2016-04-04T05:16:03.097Z,13.79
2016-04-04T05:17:03.146Z,13.79
2016-04-04T05:18:03.133Z,13.77
2016-04-04T05:19:03.150Z,13.78
2016-04-04T05:20:03.186Z,13.71
2016-04-04T05:21:03.203Z,13.78
2016-04-04T05:22:03.221Z,13.75
2016-04-04T05:23:03.240Z,13.81
2016-04-04T05:24:03.370Z,13.81
2016-04-04T05:25:03.355Z,13.77
2016-04-04T05:26:03.154Z,13.85
2016-04-04T05:27:03.334Z,13.79
2016-04-04T05:28:06.457Z,13.75
2016-04-04T05:29:03.381Z,13.79
2016-04-04T05:30:03.399Z,13.81
2016-04-04T05:31:03.433Z,13.77
2016-04-04T05:32:02.702Z,13.78
2016-04-04T05:33:03.485Z,13.77
2016-04-04T05:34:03.473Z,13.79
2016-04-04T05:35:03.662Z,13.79
2016-04-04T05:36:03.525Z,13.81
2016-04-04T05:37:03.543Z,13.81
2016-04-04T05:38:03.562Z,13.74
2016-04-04T05:39:03.580Z,13.81
2016-04-04T05:40:03.614Z,13.77
2016-04-04T05:41:03.632Z,13.79
2016-04-04T05:42:03.666Z,13.81
2016-04-04T05:43:03.669Z,13.81
2016-04-04T05:44:03.703Z,13.79
2016-04-04T05:45:03.924Z,13.74
2016-04-04T05:46:03.771Z,13.81
2016-04-04T05:47:03.773Z,13.85
2016-04-04T05:48:03.808Z,13.75
2016-04-04T05:49:03.811Z,13.77
2016-04-04T05:50:03.859Z,13.77
2016-04-04T05:51:03.847Z,13.75
2016-04-04T05:52:03.896Z,13.75
2016-04-04T05:53:03.914Z,13.83
2016-04-04T05:54:03.932Z,13.79
2016-04-04T05:55:03.936Z,13.78
2016-04-04T05:56:03.969Z,13.81
2016-04-04T05:57:03.971Z,13.77
2016-04-04T05:58:04.053Z,13.74
2016-04-04T05:59:04.025Z,13.83
2016-04-04T06:00:04.043Z,13.87
2016-04-04T06:01:04.060Z,13.78
2016-04-04T06:02:04.126Z,13.77
2016-04-04T06:03:04.129Z,13.79
2016-04-04T06:04:04.146Z,13.78
2016-04-04T06:05:04.165Z,13.87
2016-04-04T06:06:04.199Z,13.85
2016-04-04T06:07:04.202Z,13.87
2016-04-04T06:08:04.236Z,13.81
2016-04-04T06:09:04.239Z,13.85
2016-04-04T06:10:04.273Z,13.87
2016-04-04T06:11:04.290Z,13.83
2016-04-04T06:12:04.418Z,13.87
2016-04-04T06:13:04.328Z,13.89
2016-04-04T06:14:04.361Z,13.95
2016-04-04T06:15:04.364Z,13.93
2016-04-04T06:16:04.398Z,13.93
2016-04-04T06:17:04.416Z,13.86
2016-04-04T06:18:04.450Z,13.95
2016-04-04T06:19:04.469Z,13.99
2016-04-04T06:20:04.487Z,13.96
2016-04-04T06:21:04.599Z,13.97
2016-04-04T06:22:04.602Z,14.05
2016-04-04T06:23:04.620Z,14.08
2016-04-04T06:24:04.622Z,14
2016-04-04T06:25:04.641Z,14.08
2016-04-04T06:26:04.643Z,14.08
2016-04-04T06:27:04.646Z,14.08
2016-04-04T06:28:04.665Z,14.1
2016-04-04T06:29:04.713Z,14.11
2016-04-04T06:30:04.733Z,14.15
2016-04-04T06:31:04.735Z,14.15
2016-04-04T06:32:04.754Z,14.18
2016-04-04T06:33:04.849Z,14.29
2016-04-04T06:34:04.869Z,14.1
2016-04-04T06:35:04.902Z,14.12
2016-04-04T06:36:04.904Z,14.18
2016-04-04T06:37:04.924Z,14.22
2016-04-04T06:38:04.988Z,14.23
2016-04-04T06:39:04.929Z,14.23
2016-04-04T06:40:04.931Z,14.28
2016-04-04T06:41:04.950Z,14.28
2016-04-04T06:42:04.953Z,14.2
2016-04-04T06:43:04.986Z,14.23
2016-04-04T06:44:05.036Z,14.26
2016-04-04T06:45:05.023Z,14.29
2016-04-04T06:46:05.057Z,14.25
2016-04-04T06:47:05.075Z,14.25
2016-04-04T06:48:05.094Z,14.33
2016-04-04T06:49:05.112Z,14.35
2016-04-04T06:50:05.145Z,14.3
2016-04-04T06:51:05.258Z,14.35
2016-04-04T06:52:05.260Z,14.41
2016-04-04T06:53:05.278Z,14.43
2016-04-04T06:54:05.453Z,14.41
2016-04-04T06:55:05.409Z,14.43
2016-04-04T06:56:05.411Z,14.51
2016-04-04T06:57:05.414Z,14.53
2016-04-04T06:58:05.433Z,14.48
2016-04-04T06:59:05.435Z,14.54
2016-04-04T07:00:05.454Z,14.54
2016-04-04T07:01:05.633Z,14.48
2016-04-04T07:02:05.590Z,14.63
2016-04-04T07:03:05.607Z,14.6
2016-04-04T07:04:05.626Z,14.69
2016-04-04T07:05:05.643Z,14.66
2016-04-04T07:06:05.632Z,14.73
2016-04-04T07:07:05.634Z,14.78
2016-04-04T07:08:05.621Z,14.68
2016-04-04T07:09:05.639Z,14.73
2016-04-04T07:10:05.642Z,14.82
2016-04-04T07:11:04.894Z,14.81
2016-04-04T07:12:05.647Z,14.78
2016-04-04T07:13:05.509Z,14.97
2016-04-04T07:14:05.667Z,14.96
2016-04-04T07:15:05.687Z,14.94
2016-04-04T07:16:05.705Z,14.94
2016-04-04T07:17:05.738Z,15.02
2016-04-04T07:18:05.772Z,15.1
2016-04-04T07:19:05.791Z,15.03
2016-04-04T07:20:05.809Z,15.09
2016-04-04T07:21:05.811Z,15.09
2016-04-04T07:22:05.862Z,15.19
2016-04-04T07:23:05.864Z,15.24
2016-04-04T07:24:05.883Z,15.19
2016-04-04T07:25:05.916Z,15.14
2016-04-04T07:26:05.935Z,15.28
2016-04-04T07:27:05.953Z,15.36
2016-04-04T07:28:05.988Z,15.43
2016-04-04T07:29:05.990Z,15.39
2016-04-04T07:30:06.023Z,15.47
2016-04-04T07:31:06.043Z,15.51
2016-04-04T07:32:06.077Z,15.49
2016-04-04T07:33:06.094Z,15.62
2016-04-04T07:34:06.096Z,15.61
2016-04-04T07:35:06.147Z,15.67
2016-04-04T07:36:06.164Z,15.68
2016-04-04T07:37:06.184Z,15.72
2016-04-04T07:38:06.201Z,15.83
2016-04-04T07:39:06.235Z,15.8
2016-04-04T07:40:06.238Z,15.86
2016-04-04T07:41:06.288Z,15.97
2016-04-04T07:42:06.306Z,16
2016-04-04T07:43:06.339Z,15.98
2016-04-04T07:44:06.328Z,15.98
2016-04-04T07:45:06.362Z,16.01
2016-04-04T07:46:06.395Z,16.12
2016-04-04T07:47:06.413Z,16.15
2016-04-04T07:48:06.431Z,16.16
2016-04-04T07:49:06.466Z,16.2
2016-04-04T07:50:06.484Z,16.23
2016-04-04T07:51:06.502Z,16.24
2016-04-04T07:52:06.536Z,16.28
2016-04-04T07:53:06.538Z,16.39
2016-04-04T07:54:06.589Z,16.32
2016-04-04T07:55:06.607Z,16.38
2016-04-04T07:56:06.609Z,16.5
2016-04-04T07:57:06.644Z,16.51
2016-04-04T07:58:06.646Z,16.54
2016-04-04T07:59:06.680Z,16.58
2016-04-04T08:00:06.713Z,16.65
2016-04-04T08:01:06.732Z,16.65
2016-04-04T08:02:06.750Z,16.69
2016-04-04T08:03:06.785Z,16.75
2016-04-04T08:04:06.818Z,16.76
2016-04-04T08:05:06.837Z,16.79
2016-04-04T08:06:06.840Z,16.86
2016-04-04T08:07:06.858Z,16.83
2016-04-04T08:08:06.892Z,16.89
2016-04-04T08:09:06.909Z,16.96
2016-04-04T08:10:06.943Z,17.04
2016-04-04T08:11:06.962Z,17.02
2016-04-04T08:12:06.996Z,16.96
2016-04-04T08:13:06.998Z,17.05
2016-04-04T08:14:07.017Z,17.04
2016-04-04T08:15:07.050Z,17.14
2016-04-04T08:16:07.084Z,17.12
2016-04-04T08:17:07.087Z,17.15
2016-04-04T08:18:07.122Z,17.14
2016-04-04T08:19:07.140Z,17.26
2016-04-04T08:20:07.189Z,17.24
2016-04-04T08:21:07.192Z,17.27
2016-04-04T08:22:07.211Z,17.27
2016-04-04T08:23:07.244Z,17.38
2016-04-04T08:24:07.278Z,17.38
2016-04-04T08:25:07.281Z,17.39
2016-04-04T08:26:07.316Z,17.48
2016-04-04T08:27:07.333Z,17.56
2016-04-04T08:28:07.352Z,17.48
2016-04-04T08:29:07.385Z,17.54
2016-04-04T08:30:07.405Z,17.54
2016-04-04T08:31:07.422Z,17.56
2016-04-04T08:32:07.457Z,17.65
2016-04-04T08:33:07.474Z,17.67
2016-04-04T08:34:07.483Z,17.64
2016-04-04T08:35:07.489Z,17.65
2016-04-04T08:36:07.512Z,17.79
2016-04-04T08:37:07.534Z,17.71
2016-04-04T08:38:07.540Z,17.76
2016-04-04T08:39:07.569Z,17.78
2016-04-04T08:40:07.582Z,17.79
2016-04-04T08:41:07.830Z,17.78
2016-04-04T08:42:07.626Z,17.85
2016-04-04T08:43:07.640Z,17.87
2016-04-04T08:44:07.657Z,17.85
2016-04-04T08:45:07.689Z,17.9
2016-04-04T08:46:07.706Z,17.98
2016-04-04T08:47:07.723Z,17.97
2016-04-04T08:48:07.754Z,17.97
2016-04-04T08:49:07.773Z,18.01
2016-04-04T08:50:07.790Z,18.03
2016-04-04T08:51:07.823Z,18.1
2016-04-04T08:52:07.840Z,18.05
2016-04-04T08:53:07.858Z,18.05
2016-04-04T08:54:07.891Z,18.1
2016-04-04T08:55:07.910Z,18.05
2016-04-04T08:56:07.928Z,18.16
2016-04-04T08:57:07.961Z,18.13
2016-04-04T08:58:07.994Z,18.2
2016-04-04T08:59:08.013Z,18.16
2016-04-04T09:00:08.031Z,18.2
2016-04-04T09:01:08.050Z,18.29
2016-04-04T09:02:08.083Z,18.31
2016-04-04T09:03:08.101Z,18.33
2016-04-04T09:04:08.120Z,18.34
2016-04-04T09:05:08.169Z,18.43
2016-04-04T09:06:08.422Z,18.4
2016-04-04T09:07:08.221Z,18.53
2016-04-04T09:08:08.240Z,18.5
2016-04-04T09:09:08.258Z,18.56
2016-04-04T09:10:08.277Z,18.6
2016-04-04T09:11:08.295Z,18.63
2016-04-04T09:12:08.313Z,18.62
2016-04-04T09:13:08.347Z,18.62
2016-04-04T09:14:08.365Z,18.59
2016-04-04T09:15:08.399Z,18.62
2016-04-04T09:16:08.434Z,18.74
2016-04-04T09:17:08.483Z,18.71
2016-04-04T09:18:08.486Z,18.77
2016-04-04T09:19:08.535Z,18.75
2016-04-04T09:20:08.522Z,18.78
2016-04-04T09:21:08.587Z,18.78
2016-04-04T09:22:08.575Z,18.84
2016-04-04T09:23:08.592Z,18.8
2016-04-04T09:24:08.611Z,18.86
2016-04-04T09:25:08.645Z,18.93
2016-04-04T09:26:08.664Z,18.9
2016-04-04T09:27:08.697Z,18.96
2016-04-04T09:28:08.716Z,19
2016-04-04T09:29:08.766Z,18.96
2016-04-04T09:30:08.799Z,18.96
2016-04-04T09:31:08.802Z,18.98
2016-04-04T09:32:08.852Z,19
2016-04-04T09:33:08.838Z,19
2016-04-04T09:34:08.857Z,19.11
2016-04-04T09:35:08.891Z,19.14
2016-04-04T09:36:08.909Z,19.14
2016-04-04T09:37:08.958Z,19.19
2016-04-04T09:38:08.977Z,19.19
2016-04-04T09:39:08.996Z,19.24
2016-04-04T09:40:09.091Z,19.29
2016-04-04T09:41:09.048Z,19.27
2016-04-04T09:42:09.065Z,19.41
2016-04-04T09:43:09.099Z,19.45
2016-04-04T09:44:09.477Z,19.48
2016-04-04T09:45:09.293Z,19.55
2016-04-04T09:46:09.187Z,19.58
2016-04-04T09:47:09.298Z,19.56
2016-04-04T09:48:09.331Z,19.64
2016-04-04T09:49:09.335Z,19.79
2016-04-04T09:50:09.385Z,19.7
2016-04-04T09:51:09.418Z,19.84
2016-04-04T09:52:09.436Z,19.89
2016-04-04T09:53:09.423Z,19.89
2016-04-04T09:54:09.597Z,19.88
2016-04-04T09:55:09.506Z,19.95
2016-04-04T09:56:09.464Z,20.02
2016-04-04T09:57:09.481Z,20.07
2016-04-04T09:58:09.625Z,20.16
2016-04-04T09:59:09.611Z,20.13
2016-04-04T10:00:09.614Z,20.13
2016-04-04T10:01:09.680Z,20.24
2016-04-04T10:02:09.620Z,20.26
2016-04-04T10:03:09.654Z,20.32
2016-04-04T10:04:09.735Z,20.31
2016-04-04T10:05:09.705Z,20.41
2016-04-04T10:06:09.693Z,20.4
2016-04-04T10:07:09.821Z,20.4
2016-04-04T10:08:09.746Z,20.5
2016-04-04T10:09:09.779Z,20.47
2016-04-04T10:10:09.787Z,20.47
2016-04-04T10:11:09.804Z,20.55
2016-04-04T10:12:09.886Z,20.66
2016-04-04T10:13:09.873Z,20.62
2016-04-04T10:14:09.891Z,20.77
2016-04-04T10:15:09.925Z,20.75
2016-04-04T10:16:09.959Z,20.88
2016-04-04T10:17:09.962Z,20.95
2016-04-04T10:18:09.981Z,20.92
2016-04-04T10:19:10.045Z,20.97
2016-04-04T10:20:10.064Z,21.07
2016-04-04T10:21:10.066Z,21.18
2016-04-04T10:22:10.100Z,21.22
2016-04-04T10:23:10.259Z,21.29
2016-04-04T10:24:09.731Z,21.36
2016-04-04T10:25:10.358Z,21.4
2016-04-04T10:26:10.298Z,21.4
2016-04-04T10:27:10.380Z,21.43
2016-04-04T10:28:10.336Z,21.48
2016-04-04T10:29:10.431Z,21.61
2016-04-04T10:30:10.341Z,21.64
2016-04-04T10:31:10.343Z,21.6
2016-04-04T10:32:10.361Z,21.69
2016-04-04T10:33:10.379Z,21.69
2016-04-04T10:34:10.414Z,21.83
2016-04-04T10:35:10.448Z,21.88
2016-04-04T10:36:10.482Z,21.77
2016-04-04T10:37:10.499Z,21.92
2016-04-04T10:38:10.518Z,21.95
2016-04-04T10:39:10.551Z,21.99
2016-04-04T10:40:10.570Z,22.02
2016-04-04T10:41:10.605Z,22.04
2016-04-04T10:42:10.623Z,22.13
2016-04-04T10:43:10.688Z,22.15
2016-04-04T10:44:10.690Z,22.25
2016-04-04T10:45:10.709Z,22.25
2016-04-04T10:46:10.727Z,22.28
2016-04-04T10:47:10.762Z,22.36
2016-04-04T10:48:10.623Z,22.43
2016-04-04T10:49:10.814Z,22.39
2016-04-04T10:50:10.847Z,22.48
2016-04-04T10:51:10.897Z,22.43
2016-04-04T10:52:10.915Z,22.36
2016-04-04T10:53:10.950Z,22.45
2016-04-04T10:54:10.967Z,22.41
2016-04-04T10:55:11.017Z,22.47
2016-04-04T10:56:11.003Z,22.51
2016-04-04T10:57:11.038Z,22.6
2016-04-04T10:58:11.072Z,22.55
2016-04-04T10:59:11.091Z,22.59
2016-04-04T11:00:11.108Z,22.69
2016-04-04T11:01:11.142Z,22.69
2016-04-04T11:02:11.177Z,22.81
2016-04-04T11:03:11.320Z,22.81
2016-04-04T11:04:11.338Z,22.9
2016-04-04T11:05:11.372Z,22.87
2016-04-04T11:06:11.374Z,22.87
2016-04-04T11:07:11.378Z,22.91
2016-04-04T11:08:11.396Z,23.02
2016-04-04T11:09:11.393Z,22.99
2016-04-04T11:10:11.536Z,23.13
2016-04-04T11:11:11.539Z,23.13
2016-04-04T11:12:11.462Z,23.21
2016-04-04T11:13:11.481Z,23.17
2016-04-04T11:14:11.593Z,23.25
2016-04-04T11:15:11.612Z,23.27
2016-04-04T11:16:11.770Z,23.25
2016-04-04T11:17:11.648Z,23.31
2016-04-04T11:18:11.651Z,23.34
2016-04-04T11:19:11.670Z,23.36
2016-04-04T11:20:11.688Z,23.39
2016-04-04T11:21:11.706Z,23.54
2016-04-04T11:22:11.725Z,23.47
2016-04-04T11:23:11.759Z,23.48
2016-04-04T11:24:11.792Z,23.54
2016-04-04T11:25:11.811Z,23.56
2016-04-04T11:26:11.689Z,23.59
2016-04-04T11:27:11.878Z,23.61
2016-04-04T11:28:12.006Z,23.59
2016-04-04T11:29:12.009Z,23.65
2016-04-04T11:30:12.043Z,23.66
2016-04-04T11:31:12.218Z,23.73
2016-04-04T11:32:12.220Z,23.74
2016-04-04T11:33:12.144Z,23.65
2016-04-04T11:34:12.240Z,23.73
2016-04-04T11:35:12.243Z,23.77
2016-04-04T11:36:12.262Z,23.77
2016-04-04T11:37:12.311Z,23.74
2016-04-04T11:38:12.319Z,23.73
2016-04-04T11:39:12.307Z,23.76
2016-04-04T11:40:12.325Z,23.78
2016-04-04T11:41:12.374Z,23.8
2016-04-04T11:42:12.392Z,23.78
2016-04-04T11:43:12.411Z,23.8
2016-04-04T11:44:12.429Z,23.84
2016-04-04T11:45:12.447Z,23.88
2016-04-04T11:46:12.450Z,23.93
2016-04-04T11:47:12.468Z,23.87
2016-04-04T11:48:12.580Z,23.91
2016-04-04T11:49:12.505Z,23.92
2016-04-04T11:50:12.554Z,23.88
2016-04-04T11:51:12.572Z,23.91
2016-04-04T11:52:12.607Z,23.95
2016-04-04T11:53:12.641Z,24.02
2016-04-04T11:54:12.658Z,24.02
2016-04-04T11:55:12.709Z,24.02
2016-04-04T11:56:12.711Z,24.05
2016-04-04T11:57:12.746Z,24.05
2016-04-04T11:58:12.780Z,24.03
2016-04-04T11:59:12.813Z,24.05
2016-04-04T12:00:12.847Z,24.1
2016-04-04T12:01:12.865Z,24.06
2016-04-04T12:02:12.884Z,24.11
2016-04-04T12:03:12.918Z,24.16
2016-04-04T12:04:12.951Z,24.16
2016-04-04T12:05:12.985Z,24.14
2016-04-04T12:06:13.003Z,24.17
2016-04-04T12:07:13.037Z,24.21
2016-04-04T12:08:13.071Z,24.21
2016-04-04T12:09:13.105Z,24.23
2016-04-04T12:10:13.124Z,24.2
2016-04-04T12:11:13.173Z,24.29
2016-04-04T12:12:13.192Z,24.3
2016-04-04T12:13:13.226Z,24.38
2016-04-04T12:14:13.260Z,24.39
2016-04-04T12:15:13.278Z,24.43
2016-04-04T12:16:13.312Z,24.45
2016-04-04T12:17:13.345Z,24.47
2016-04-04T12:18:13.364Z,24.53
2016-04-04T12:19:13.414Z,24.45
2016-04-04T12:20:13.432Z,24.54
2016-04-04T12:21:13.467Z,24.54
2016-04-04T12:22:13.484Z,24.54
2016-04-04T12:23:13.519Z,24.66
2016-04-04T12:24:13.553Z,24.65
2016-04-04T12:25:13.571Z,24.68
2016-04-04T12:26:13.620Z,24.74
2016-04-04T12:27:13.639Z,24.77
2016-04-04T12:28:13.672Z,24.86
2016-04-04T12:29:13.707Z,24.86
2016-04-04T12:30:13.740Z,24.85
2016-04-04T12:31:13.758Z,24.95
2016-04-04T12:32:13.808Z,24.96
2016-04-04T12:33:13.810Z,24.95
2016-04-04T12:34:13.860Z,24.96
2016-04-04T12:35:13.878Z,25.04
2016-04-04T12:36:13.928Z,25.04
2016-04-04T12:37:13.946Z,25.11
2016-04-04T12:38:13.965Z,25.17
2016-04-04T12:39:14.014Z,25.13
2016-04-04T12:40:14.033Z,25.13
2016-04-04T12:41:14.067Z,25.21
2016-04-04T12:42:14.210Z,25.25
2016-04-04T12:43:14.135Z,25.26
2016-04-04T12:44:14.153Z,25.18
2016-04-04T12:45:14.296Z,25.26
2016-04-04T12:46:14.314Z,25.32
2016-04-04T12:47:14.317Z,25.35
2016-04-04T12:48:14.336Z,25.28
2016-04-04T12:49:14.353Z,25.41
2016-04-04T12:50:14.356Z,25.44
2016-04-04T12:51:14.437Z,25.44
2016-04-04T12:52:14.471Z,25.53
2016-04-04T12:53:14.536Z,25.53
2016-04-04T12:54:14.523Z,25.59
2016-04-04T12:55:14.526Z,25.65
2016-04-04T12:56:14.529Z,25.68